Accueil
METAR-TAF:

METAR-TAF

Aéroports :

Wattisham, Angleterre

latitude: 52-07N, longitude: 000-58E, altitude: 87 m

Observation

Le bulletin a été fait il y a 1 heure et 12 minutes, à 20:50 UTC
Vent 11 kt de sud/sud-ouest
Température 10°C
Humidité 87%
Pression 1012 hPa
Visibilité 10 km ou plus
pas de nuages en-dessous de 1500 mètres et pas de cumulonimbus.

METAR: EGUW 122050Z 20011KT CAVOK 10/08 Q1012 BLU TEMPO 7000 SHRA SCT020TCU WHT

Heure: 22:02 (22:02 UTC)

Prévision

Le bulletin a été fait il y a 2 heures et 13 minutes, à 19:49 UTC
Prévision valable du 12 à 21 UTC au 12 à 24 UTC
Vent 10 kt de sud
Visibilité 10 km ou plus
Quelques nuages à une hauteur de 2500 ft

TAF: EGUW 121949Z 1221/1224 19010KT 9999 FEW025

Observations et prévisions météorologiques de plus de 4000 aéroports (messages METAR et TAF).

Les stations disponibles sont représentées par des disques jaunes et rouges sur la carte.

Passer la souris dessus pour voir le nom de la station.

Cliquer dessus pour voir les observations et prévisions météorologiques.

Pour changer de carte: cliquez sur les boutons verts avec une croix noire pour zoomer, sur le bouton vert avec un tiret pour effectuer un zoom arrière, ou sur les flèches vertes pour les cartes adjacentes.


METAR-TAF: